createdAt,value
2017-12-15T00:00:16.682Z,2.70
2017-12-15T00:02:44.269Z,2.70
2017-12-15T00:05:12.672Z,2.70
2017-12-15T00:07:40.206Z,2.80
2017-12-15T00:10:07.905Z,2.80
2017-12-15T00:12:36.237Z,2.80
2017-12-15T00:15:03.808Z,2.80
2017-12-15T00:17:31.358Z,2.80
2017-12-15T00:19:58.970Z,2.80
2017-12-15T00:22:27.327Z,2.80
2017-12-15T00:24:54.884Z,2.80
2017-12-15T00:27:22.472Z,2.80
2017-12-15T00:29:50.805Z,2.70
2017-12-15T00:32:18.409Z,2.70
2017-12-15T00:34:46.770Z,2.70
2017-12-15T00:37:14.349Z,2.60
2017-12-15T00:39:42.214Z,2.60
2017-12-15T00:42:09.798Z,2.70
2017-12-15T00:44:37.362Z,2.70
2017-12-15T00:47:05.650Z,2.80
2017-12-15T00:49:33.210Z,2.80
2017-12-15T00:52:00.792Z,2.80
2017-12-15T00:54:29.097Z,2.80
2017-12-15T00:56:56.662Z,2.80
2017-12-15T00:59:24.246Z,2.90
2017-12-15T01:01:52.569Z,2.90
2017-12-15T01:04:20.131Z,2.90
2017-12-15T01:06:47.676Z,2.90
2017-12-15T01:09:15.702Z,2.90
2017-12-15T01:11:43.271Z,2.90
2017-12-15T01:14:10.953Z,3.00
2017-12-15T01:16:38.534Z,2.90
2017-12-15T01:19:06.140Z,3.00
2017-12-15T01:21:33.688Z,2.90
2017-12-15T01:24:01.261Z,2.90
2017-12-15T01:26:28.839Z,2.90
2017-12-15T01:28:57.182Z,2.90
2017-12-15T01:31:24.755Z,2.90
2017-12-15T01:33:52.309Z,2.90
2017-12-15T01:36:19.897Z,2.90
2017-12-15T01:38:48.240Z,2.90
2017-12-15T01:41:15.824Z,2.90
2017-12-15T01:43:43.381Z,2.90
2017-12-15T01:46:10.936Z,2.90
2017-12-15T01:48:38.523Z,2.90
2017-12-15T01:51:06.869Z,2.90
2017-12-15T01:53:34.700Z,2.90
2017-12-15T01:56:02.292Z,2.90
2017-12-15T01:58:29.874Z,2.90
2017-12-15T02:00:57.451Z,2.80
2017-12-15T02:03:25.040Z,2.80
2017-12-15T02:05:52.591Z,2.70
2017-12-15T02:08:20.159Z,2.70
2017-12-15T02:10:47.720Z,2.70
2017-12-15T02:13:15.297Z,2.70
2017-12-15T02:15:42.866Z,2.70
2017-12-15T02:18:10.598Z,2.70
2017-12-15T02:20:38.149Z,2.70
2017-12-15T02:23:05.705Z,2.70
2017-12-15T02:25:34.186Z,2.70
2017-12-15T02:28:02.560Z,2.70
2017-12-15T02:30:30.897Z,2.70
2017-12-15T02:32:58.469Z,2.70
2017-12-15T02:35:26.030Z,2.70
2017-12-15T02:37:53.647Z,2.70
2017-12-15T02:40:21.207Z,2.70
2017-12-15T02:42:48.765Z,2.70
2017-12-15T02:45:16.388Z,2.70
2017-12-15T02:47:43.967Z,2.70
2017-12-15T02:50:12.289Z,2.80
2017-12-15T02:52:39.870Z,2.80
2017-12-15T02:55:07.463Z,2.80
2017-12-15T02:57:35.794Z,2.80
2017-12-15T03:00:03.370Z,2.70
2017-12-15T03:02:30.924Z,2.80
2017-12-15T03:04:58.498Z,2.80
2017-12-15T03:07:26.075Z,2.80
2017-12-15T03:09:53.754Z,2.70
2017-12-15T03:12:22.105Z,2.70
2017-12-15T03:14:49.665Z,2.60
2017-12-15T03:17:17.245Z,2.60
2017-12-15T03:19:45.577Z,2.60
2017-12-15T03:22:13.162Z,2.60
2017-12-15T03:24:40.721Z,2.60
2017-12-15T03:27:08.389Z,2.60
2017-12-15T03:29:35.952Z,2.60
2017-12-15T03:32:03.529Z,2.60
2017-12-15T03:34:31.110Z,2.60
2017-12-15T03:36:58.700Z,2.60
2017-12-15T03:39:27.033Z,2.60
2017-12-15T03:41:54.602Z,2.60
2017-12-15T03:44:22.937Z,2.60
2017-12-15T03:46:50.530Z,2.60
2017-12-15T03:49:18.082Z,2.70
2017-12-15T03:51:45.661Z,2.70
2017-12-15T03:54:14.007Z,2.70
2017-12-15T03:56:41.569Z,2.70
2017-12-15T03:59:09.145Z,2.70
2017-12-15T04:01:36.720Z,2.70
2017-12-15T04:04:05.122Z,2.70
2017-12-15T04:06:32.809Z,2.70
2017-12-15T04:09:00.389Z,2.70
2017-12-15T04:11:27.962Z,2.70
2017-12-15T04:13:55.548Z,2.70
2017-12-15T04:16:23.902Z,2.70
2017-12-15T04:18:51.441Z,2.70
2017-12-15T04:21:19.014Z,2.70
2017-12-15T04:23:46.642Z,2.70
2017-12-15T04:28:48.050Z,2.80
2017-12-15T04:31:15.606Z,2.80
2017-12-15T04:33:43.210Z,2.80
2017-12-15T04:36:10.749Z,2.80
2017-12-15T04:38:39.141Z,2.80
2017-12-15T04:41:07.472Z,2.80
2017-12-15T04:43:35.079Z,2.80
2017-12-15T04:46:03.394Z,2.80
2017-12-15T04:48:31.037Z,2.70
2017-12-15T04:50:58.612Z,2.80
2017-12-15T04:53:26.941Z,2.80
2017-12-15T04:55:54.548Z,2.80
2017-12-15T04:58:22.107Z,2.80
2017-12-15T05:00:49.696Z,2.80
2017-12-15T05:03:17.265Z,2.80
2017-12-15T05:05:44.826Z,2.80
2017-12-15T05:08:12.423Z,2.70
2017-12-15T05:10:40.742Z,2.70
2017-12-15T05:13:08.299Z,2.70
2017-12-15T05:15:35.891Z,2.60
2017-12-15T05:18:03.453Z,2.60
2017-12-15T05:20:31.030Z,2.60
2017-12-15T05:22:58.739Z,2.70
2017-12-15T05:25:26.308Z,2.70
2017-12-15T05:27:53.874Z,2.70
2017-12-15T05:30:21.448Z,2.70
2017-12-15T05:32:49.021Z,2.70
2017-12-15T05:35:16.669Z,2.70
2017-12-15T05:37:44.246Z,2.70
2017-12-15T05:40:11.824Z,2.70
2017-12-15T05:42:39.399Z,2.70
2017-12-15T05:45:07.777Z,2.70
2017-12-15T05:47:36.124Z,2.70
2017-12-15T05:50:03.719Z,2.70
2017-12-15T05:52:32.058Z,2.70
2017-12-15T05:54:59.658Z,2.70
2017-12-15T05:57:27.995Z,2.80
2017-12-15T05:59:55.574Z,2.80
2017-12-15T06:02:23.156Z,2.80
2017-12-15T06:04:51.529Z,2.90
2017-12-15T06:07:19.873Z,2.90
2017-12-15T06:09:47.472Z,2.90
2017-12-15T06:12:15.868Z,2.90
2017-12-15T06:14:44.270Z,2.90
2017-12-15T06:17:11.819Z,2.90
2017-12-15T06:19:39.466Z,3.00
2017-12-15T06:22:07.798Z,3.00
2017-12-15T06:24:35.349Z,3.00
2017-12-15T06:27:02.929Z,3.00
2017-12-15T06:29:30.516Z,3.00
2017-12-15T06:31:58.069Z,3.00
2017-12-15T06:34:26.394Z,3.00
2017-12-15T06:36:53.985Z,3.00
2017-12-15T06:39:21.567Z,3.00
2017-12-15T06:41:49.154Z,3.10
2017-12-15T06:44:16.707Z,3.10
2017-12-15T06:46:45.058Z,3.10
2017-12-15T06:49:12.645Z,3.10
2017-12-15T06:51:40.982Z,3.10
2017-12-15T06:54:08.574Z,3.10
2017-12-15T06:56:36.952Z,3.10
2017-12-15T06:59:05.289Z,3.20
2017-12-15T07:01:32.871Z,3.20
2017-12-15T07:04:00.448Z,3.20
2017-12-15T07:06:28.002Z,3.20
2017-12-15T07:08:55.584Z,3.20
2017-12-15T07:11:23.905Z,3.20
2017-12-15T07:13:51.486Z,3.20
2017-12-15T07:16:19.063Z,3.20
2017-12-15T07:18:46.647Z,3.20
2017-12-15T07:21:14.977Z,3.20
2017-12-15T07:23:42.579Z,3.10
2017-12-15T07:26:10.941Z,3.20
2017-12-15T07:28:38.522Z,3.20
2017-12-15T07:31:06.862Z,3.20
2017-12-15T07:33:34.453Z,3.20
2017-12-15T07:36:02.818Z,3.20
2017-12-15T07:38:30.426Z,3.20
2017-12-15T07:40:58.016Z,3.30
2017-12-15T07:43:25.647Z,3.30
2017-12-15T07:45:53.281Z,3.30
2017-12-15T07:48:21.642Z,3.30
2017-12-15T07:50:49.197Z,3.20
2017-12-15T07:53:16.773Z,3.30
2017-12-15T07:55:44.357Z,3.20
2017-12-15T07:58:12.693Z,3.10
2017-12-15T08:00:40.268Z,3.10
2017-12-15T08:03:07.830Z,3.10
2017-12-15T08:05:35.424Z,3.20
2017-12-15T08:08:02.985Z,3.20
2017-12-15T08:10:30.573Z,3.20
2017-12-15T08:12:58.137Z,3.30
2017-12-15T08:15:25.717Z,3.40
2017-12-15T08:17:53.302Z,3.50
2017-12-15T08:20:21.009Z,3.60
2017-12-15T08:22:48.622Z,3.60
2017-12-15T08:25:16.199Z,3.70
2017-12-15T08:27:44.542Z,3.70
2017-12-15T08:30:12.107Z,3.70
2017-12-15T08:32:39.681Z,3.70
2017-12-15T08:35:07.230Z,3.60
2017-12-15T08:37:34.922Z,3.70
2017-12-15T08:40:03.272Z,3.70
2017-12-15T08:42:30.883Z,3.70
2017-12-15T08:44:59.213Z,3.80
2017-12-15T08:47:26.914Z,3.80
2017-12-15T08:49:54.507Z,4.00
2017-12-15T08:52:22.066Z,4.10
2017-12-15T08:54:49.712Z,4.10
2017-12-15T08:57:17.297Z,4.20
2017-12-15T08:59:44.871Z,4.30
2017-12-15T09:02:12.441Z,4.30
2017-12-15T09:04:40.018Z,4.30
2017-12-15T09:07:07.582Z,4.20
2017-12-15T09:09:35.249Z,4.20
2017-12-15T09:12:02.840Z,4.20
2017-12-15T09:14:30.443Z,4.20
2017-12-15T09:16:58.010Z,4.30
2017-12-15T09:19:25.573Z,4.40
2017-12-15T09:21:53.197Z,4.40
2017-12-15T09:24:20.782Z,4.50
2017-12-15T09:26:48.341Z,4.50
2017-12-15T09:29:16.113Z,4.40
2017-12-15T09:31:44.462Z,4.40
2017-12-15T09:34:12.047Z,4.50
2017-12-15T09:36:39.622Z,4.50
2017-12-15T09:39:07.341Z,4.50
2017-12-15T09:41:34.947Z,4.60
2017-12-15T09:44:02.519Z,4.50
2017-12-15T09:46:30.090Z,4.60
2017-12-15T09:48:58.429Z,4.70
2017-12-15T09:51:25.993Z,4.70
2017-12-15T09:53:53.606Z,4.80
2017-12-15T09:56:21.941Z,4.90
2017-12-15T09:58:49.541Z,4.90
2017-12-15T10:01:17.862Z,5.00
2017-12-15T10:03:45.451Z,5.00
2017-12-15T10:06:13.161Z,5.00
2017-12-15T10:08:40.747Z,5.10
2017-12-15T10:11:08.333Z,5.10
2017-12-15T10:13:35.978Z,5.10
2017-12-15T10:16:03.567Z,5.10
2017-12-15T10:18:31.154Z,5.20
2017-12-15T10:20:59.502Z,5.20
2017-12-15T10:23:27.078Z,5.20
2017-12-15T10:25:54.674Z,5.30
2017-12-15T10:28:22.249Z,5.30
2017-12-15T10:30:49.823Z,5.30
2017-12-15T10:33:17.398Z,5.40
2017-12-15T10:35:44.980Z,5.40
2017-12-15T10:38:12.550Z,5.40
2017-12-15T10:40:40.884Z,5.40
2017-12-15T10:43:08.462Z,5.40
2017-12-15T10:45:36.034Z,5.40
2017-12-15T10:48:03.642Z,5.40
2017-12-15T10:50:31.191Z,5.40
2017-12-15T10:52:58.765Z,5.40
2017-12-15T10:55:26.329Z,5.50
2017-12-15T10:57:53.986Z,5.60
2017-12-15T11:00:21.573Z,5.60
2017-12-15T11:02:49.905Z,5.80
2017-12-15T11:05:18.261Z,5.90
2017-12-15T11:07:45.820Z,5.90
2017-12-15T11:10:13.386Z,6.10
2017-12-15T11:12:41.021Z,6.10
2017-12-15T11:15:08.686Z,6.10
2017-12-15T11:17:36.238Z,6.10
2017-12-15T11:20:03.823Z,6.20
2017-12-15T11:22:31.406Z,6.20
2017-12-15T11:24:59.759Z,6.20
2017-12-15T11:27:27.410Z,6.20
2017-12-15T11:29:54.992Z,6.20
2017-12-15T11:32:22.566Z,6.40
2017-12-15T11:34:50.906Z,6.50
2017-12-15T11:37:18.485Z,6.50
2017-12-15T11:39:46.065Z,6.60
2017-12-15T11:42:13.689Z,6.70
2017-12-15T11:44:41.261Z,6.80
2017-12-15T11:47:08.859Z,6.90
2017-12-15T11:49:36.366Z,6.90
2017-12-15T11:52:03.938Z,6.80
2017-12-15T11:54:31.512Z,6.80
2017-12-15T11:56:59.122Z,6.90
2017-12-15T11:59:26.712Z,7.10
2017-12-15T12:01:54.421Z,7.10
2017-12-15T12:04:22.790Z,6.70
2017-12-15T12:06:50.366Z,6.70
2017-12-15T12:09:18.985Z,6.60
2017-12-15T12:11:46.533Z,6.60
2017-12-15T12:14:14.142Z,6.60
2017-12-15T12:16:41.713Z,6.50
2017-12-15T12:19:09.289Z,6.50
2017-12-15T12:21:37.631Z,6.50
2017-12-15T12:24:05.247Z,6.50
2017-12-15T12:26:32.793Z,6.60
2017-12-15T12:29:01.152Z,6.40
2017-12-15T12:31:28.723Z,6.40
2017-12-15T12:33:56.326Z,6.30
2017-12-15T12:36:23.942Z,6.20
2017-12-15T12:38:51.571Z,6.20
2017-12-15T12:41:19.140Z,6.20
2017-12-15T12:43:46.730Z,6.30
2017-12-15T12:46:14.323Z,6.40
2017-12-15T12:48:41.881Z,6.40
2017-12-15T12:51:10.225Z,6.40
2017-12-15T12:53:37.814Z,6.40
2017-12-15T12:56:05.401Z,6.40
2017-12-15T12:58:32.978Z,6.40
2017-12-15T13:01:00.557Z,6.30
2017-12-15T13:03:28.162Z,6.20
2017-12-15T13:05:56.506Z,6.10
2017-12-15T13:08:24.169Z,6.10
2017-12-15T13:10:51.713Z,6.20
2017-12-15T13:13:19.373Z,6.30
2017-12-15T13:15:46.940Z,6.40
2017-12-15T13:18:14.517Z,6.50
2017-12-15T13:20:42.109Z,6.60
2017-12-15T13:23:10.501Z,6.70
2017-12-15T13:25:38.059Z,6.70
2017-12-15T13:28:05.642Z,6.70
2017-12-15T13:30:33.203Z,6.60
2017-12-15T13:33:00.798Z,6.60
2017-12-15T13:35:28.347Z,6.60
2017-12-15T13:37:56.037Z,6.60
2017-12-15T13:40:23.718Z,6.50
2017-12-15T13:42:52.058Z,6.30
2017-12-15T13:45:19.636Z,6.30
2017-12-15T13:47:48.586Z,6.40
2017-12-15T13:50:16.183Z,6.40
2017-12-15T13:52:44.018Z,6.30
2017-12-15T13:55:11.601Z,6.10
2017-12-15T13:57:39.809Z,6.00
2017-12-15T14:00:07.390Z,5.90
2017-12-15T14:02:34.968Z,5.80
2017-12-15T14:05:02.559Z,5.60
2017-12-15T14:07:30.173Z,5.50
2017-12-15T14:09:57.752Z,5.30
2017-12-15T14:12:25.346Z,5.20
2017-12-15T14:14:52.949Z,5.10
2017-12-15T14:17:20.522Z,5.10
2017-12-15T14:19:48.090Z,5.10
2017-12-15T14:22:15.658Z,5.10
2017-12-15T14:24:43.346Z,5.10
2017-12-15T14:27:10.937Z,5.10
2017-12-15T14:29:39.264Z,5.00
2017-12-15T14:32:06.874Z,5.00
2017-12-15T14:34:35.201Z,4.90
2017-12-15T14:37:02.777Z,4.90
2017-12-15T14:39:30.878Z,4.80
2017-12-15T14:41:58.449Z,4.80
2017-12-15T14:44:26.795Z,4.80
2017-12-15T14:46:54.350Z,4.80
2017-12-15T14:49:21.940Z,4.80
2017-12-15T14:51:49.538Z,4.80
2017-12-15T14:54:17.099Z,4.90
2017-12-15T14:56:44.699Z,4.90
2017-12-15T14:59:12.297Z,4.90
2017-12-15T15:01:40.621Z,5.00
2017-12-15T15:04:08.242Z,5.00
2017-12-15T15:06:36.566Z,5.00
2017-12-15T15:09:04.188Z,4.90
2017-12-15T15:11:32.522Z,5.00
2017-12-15T15:14:00.096Z,4.90
2017-12-15T15:16:27.677Z,4.90
2017-12-15T15:18:55.288Z,4.90
2017-12-15T15:21:22.907Z,4.90
2017-12-15T15:23:50.464Z,4.90
2017-12-15T15:26:18.931Z,4.90
2017-12-15T15:28:46.522Z,4.90
2017-12-15T15:31:14.095Z,4.90
2017-12-15T15:33:42.469Z,4.80
2017-12-15T15:36:10.078Z,4.80
2017-12-15T15:38:37.642Z,4.80
2017-12-15T15:41:06.399Z,4.80
2017-12-15T15:43:34.044Z,4.80
2017-12-15T15:46:01.544Z,4.80
2017-12-15T15:48:29.130Z,4.70
2017-12-15T15:50:57.469Z,4.50
2017-12-15T15:53:25.061Z,4.50
2017-12-15T15:55:53.435Z,4.50
2017-12-15T15:58:21.757Z,4.50
2017-12-15T16:00:49.326Z,4.50
2017-12-15T16:03:16.883Z,4.60
2017-12-15T16:05:44.457Z,4.50
2017-12-15T16:08:12.055Z,4.60
2017-12-15T16:10:39.611Z,4.60
2017-12-15T16:13:07.169Z,4.50
2017-12-15T16:15:34.786Z,4.50
2017-12-15T16:18:02.365Z,4.50
2017-12-15T16:20:29.973Z,4.40
2017-12-15T16:22:58.329Z,4.40
2017-12-15T16:25:25.884Z,4.40
2017-12-15T16:27:53.478Z,4.40
2017-12-15T16:30:21.830Z,4.40
2017-12-15T16:32:50.327Z,4.40
2017-12-15T16:35:17.858Z,4.40
2017-12-15T16:37:45.435Z,4.40
2017-12-15T16:40:12.970Z,4.40
2017-12-15T16:42:40.613Z,4.40
2017-12-15T16:45:08.206Z,4.40
2017-12-15T16:47:35.767Z,4.40
2017-12-15T16:50:03.313Z,4.40
2017-12-15T16:52:31.716Z,4.30
2017-12-15T16:54:59.281Z,4.30
2017-12-15T16:57:26.886Z,4.30
2017-12-15T16:59:54.470Z,4.30
2017-12-15T17:02:22.827Z,4.30
2017-12-15T17:04:50.424Z,4.20
2017-12-15T17:07:18.015Z,4.30
2017-12-15T17:09:45.577Z,4.30
2017-12-15T17:12:13.109Z,4.30
2017-12-15T17:14:40.819Z,4.30
2017-12-15T17:17:08.365Z,4.30
2017-12-15T17:19:35.912Z,4.40
2017-12-15T17:22:03.653Z,4.40
2017-12-15T17:24:31.237Z,4.40
2017-12-15T17:26:58.807Z,4.40
2017-12-15T17:29:26.362Z,4.30
2017-12-15T17:31:53.955Z,4.40
2017-12-15T17:34:22.271Z,4.30
2017-12-15T17:36:49.905Z,4.30
2017-12-15T17:39:18.462Z,4.30
2017-12-15T17:41:46.060Z,4.30
2017-12-15T17:44:13.643Z,4.30
2017-12-15T17:46:41.245Z,4.30
2017-12-15T17:49:09.589Z,4.20
2017-12-15T17:51:37.177Z,4.20
2017-12-15T17:54:04.789Z,4.20
2017-12-15T17:56:32.368Z,4.20
2017-12-15T17:58:59.956Z,4.20
2017-12-15T18:01:27.531Z,4.20
2017-12-15T18:03:55.099Z,4.20
2017-12-15T18:06:23.443Z,4.20
2017-12-15T18:08:51.016Z,4.20
2017-12-15T18:11:18.587Z,4.20
2017-12-15T18:13:46.169Z,4.20
2017-12-15T18:16:13.769Z,4.20
2017-12-15T18:18:41.338Z,4.20
2017-12-15T18:21:09.065Z,4.20
2017-12-15T18:23:36.626Z,4.10
2017-12-15T18:26:04.232Z,4.10
2017-12-15T18:28:31.804Z,4.20
2017-12-15T18:30:59.390Z,4.20
2017-12-15T18:33:27.724Z,4.20
2017-12-15T18:35:55.287Z,4.20
2017-12-15T18:38:22.983Z,4.20
2017-12-15T18:40:50.596Z,4.20
2017-12-15T18:43:18.165Z,4.20
2017-12-15T18:45:45.787Z,4.10
2017-12-15T18:48:13.359Z,4.10
2017-12-15T18:50:41.009Z,4.10
2017-12-15T18:53:09.381Z,4.10
2017-12-15T18:55:37.755Z,4.10
2017-12-15T18:58:06.096Z,4.20
2017-12-15T19:00:33.634Z,4.10
2017-12-15T19:03:01.184Z,4.20
2017-12-15T19:05:28.758Z,4.20
2017-12-15T19:07:56.457Z,4.20
2017-12-15T19:10:24.099Z,4.20
2017-12-15T19:12:51.673Z,4.20
2017-12-15T19:15:19.238Z,4.10
2017-12-15T19:17:46.848Z,4.10
2017-12-15T19:20:14.407Z,4.10
2017-12-15T19:22:42.001Z,4.10
2017-12-15T19:25:10.746Z,4.10
2017-12-15T19:27:39.085Z,4.10
2017-12-15T19:30:06.647Z,4.10
2017-12-15T19:32:34.218Z,4.10
2017-12-15T19:35:02.957Z,4.10
2017-12-15T19:37:30.525Z,4.10
2017-12-15T19:39:58.104Z,4.10
2017-12-15T19:42:25.672Z,4.10
2017-12-15T19:44:53.255Z,4.10
2017-12-15T19:47:20.838Z,4.20
2017-12-15T19:49:49.189Z,4.20
2017-12-15T19:52:16.755Z,4.20
2017-12-15T19:54:44.352Z,4.20
2017-12-15T19:57:11.958Z,4.20
2017-12-15T19:59:39.555Z,4.20
2017-12-15T20:02:07.918Z,4.20
2017-12-15T20:04:36.251Z,4.20
2017-12-15T20:07:03.842Z,4.20
2017-12-15T20:09:31.433Z,4.20
2017-12-15T20:11:59.765Z,4.30
2017-12-15T20:14:27.342Z,4.30
2017-12-15T20:16:54.965Z,4.30
2017-12-15T20:19:22.539Z,4.30
2017-12-15T20:21:50.073Z,4.30
2017-12-15T20:24:17.650Z,4.30
2017-12-15T20:26:45.321Z,4.30
2017-12-15T20:29:12.964Z,4.30
2017-12-15T20:31:40.531Z,4.30
2017-12-15T20:34:08.129Z,4.40
2017-12-15T20:36:35.691Z,4.40
2017-12-15T20:39:03.282Z,4.50
2017-12-15T20:41:31.615Z,4.40
2017-12-15T20:43:59.191Z,4.40
2017-12-15T20:46:26.745Z,4.40
2017-12-15T20:48:54.406Z,4.40
2017-12-15T20:51:21.970Z,4.40
2017-12-15T20:53:49.578Z,4.40
2017-12-15T20:56:17.954Z,4.40
2017-12-15T20:58:46.298Z,4.40
2017-12-15T21:01:13.877Z,4.30
2017-12-15T21:03:41.445Z,4.30
2017-12-15T21:06:09.766Z,4.30
2017-12-15T21:08:37.342Z,4.30
2017-12-15T21:11:04.946Z,4.30
2017-12-15T21:13:33.562Z,4.40
2017-12-15T21:16:02.001Z,4.40
2017-12-15T21:18:29.566Z,4.40
2017-12-15T21:20:57.174Z,4.40
2017-12-15T21:23:24.765Z,4.40
2017-12-15T21:25:52.380Z,4.40
2017-12-15T21:28:19.925Z,4.30
2017-12-15T21:30:48.318Z,4.30
2017-12-15T21:33:15.874Z,4.30
2017-12-15T21:35:43.454Z,4.40
2017-12-15T21:38:11.033Z,4.30
2017-12-15T21:40:38.608Z,4.30
2017-12-15T21:43:06.251Z,4.20
2017-12-15T21:45:34.615Z,4.10
2017-12-15T21:48:03.052Z,4.10
2017-12-15T21:50:30.658Z,4.00
2017-12-15T21:52:58.250Z,3.90
2017-12-15T21:55:25.838Z,3.80
2017-12-15T21:57:53.518Z,3.70
2017-12-15T22:00:21.829Z,3.60
2017-12-15T22:02:49.473Z,3.60
2017-12-15T22:05:17.062Z,3.50
2017-12-15T22:07:44.662Z,3.40
2017-12-15T22:10:12.268Z,3.30
2017-12-15T22:12:39.937Z,3.10
2017-12-15T22:15:07.530Z,3.00
2017-12-15T22:17:35.130Z,2.90
2017-12-15T22:20:03.486Z,2.70
2017-12-15T22:22:31.031Z,2.70
2017-12-15T22:24:58.612Z,2.60
2017-12-15T22:27:26.976Z,2.40
2017-12-15T22:29:54.559Z,2.40
2017-12-15T22:32:22.886Z,2.20
2017-12-15T22:34:51.323Z,2.20
2017-12-15T22:37:19.691Z,2.00
2017-12-15T22:39:47.246Z,2.00
2017-12-15T22:42:14.894Z,1.90
2017-12-15T22:44:42.462Z,1.80
2017-12-15T22:47:10.484Z,1.70
2017-12-15T22:49:38.043Z,1.60
2017-12-15T22:52:05.698Z,1.40
2017-12-15T22:54:33.360Z,1.40
2017-12-15T22:57:00.929Z,1.40
2017-12-15T22:59:28.509Z,1.40
2017-12-15T23:01:56.058Z,1.50
2017-12-15T23:04:23.667Z,1.60
2017-12-15T23:06:51.271Z,1.80
2017-12-15T23:09:18.862Z,2.00
2017-12-15T23:11:46.481Z,2.10
2017-12-15T23:14:14.128Z,2.30
2017-12-15T23:16:42.509Z,2.40
2017-12-15T23:19:10.897Z,2.50
2017-12-15T23:21:39.324Z,2.60
2017-12-15T23:24:06.910Z,2.60
2017-12-15T23:26:34.534Z,2.70
2017-12-15T23:29:02.133Z,2.70
2017-12-15T23:31:29.696Z,2.70
2017-12-15T23:33:57.300Z,2.80
2017-12-15T23:36:24.871Z,2.80
2017-12-15T23:38:52.470Z,2.80
2017-12-15T23:41:20.154Z,2.90
2017-12-15T23:43:47.725Z,3.00
2017-12-15T23:46:16.050Z,3.00
2017-12-15T23:48:43.630Z,3.00
2017-12-15T23:51:11.202Z,3.10
2017-12-15T23:53:38.795Z,3.10
2017-12-15T23:56:18.906Z,3.10
2017-12-15T23:58:46.616Z,3.10
